METAR Data
IDs: Format: Raw Decoded Include TAF

Data at: 2338 UTC 04 Jul 2022

METAR for:KTLH (Tallahassee Intl, FL, US)
Text:KTLH 042253Z 23008KT 10SM BKN045CB BKN250 31/24 A3004 RMK AO2 LTG DSNT W AND NW SLP172 VIS N 1 CB N TCU E T03060239
Temperature: 30.6°C ( 87°F)
Dewpoint: 23.9°C ( 75°F) [RH = 68%]
Pressure (altimeter):30.04 inches Hg (1017.4 mb) [Sea level pressure: 1017.2 mb]
Winds:from the SW (230 degrees) at 9 MPH (8 knots; 4.1 m/s)
Visibility:10 or more sm (16+ km)
Ceiling:4500 feet AGL
Clouds: broken clouds at 4500 feet AGL, broken clouds at 25000 feet AGL